Richardson, Mississippi
Current Conditions -  °F | °C
As of 5:53 PM on Friday 28 Nov 2014 (Local Time) from KASD Reporting Station
Clear Clear  
Wind Chill: 46°   Ceiling: Unl
Heat Index: 46°   Visibility: 10mi
Dew Point: 40°   Wind: 3mph
Humidity: 79%   Direction: 150°SSE
Pressure: 30.3"   Gusts: NA
Location:  30.5854°N, 89.6932°W
Report Text: KASD 282353Z AUTO 15003KT 10SM CLR 08/04 A3030 RMK AO2 SLP262 T00780044 10156 20078 55001
Loading
Personal Weather Stations






























Interactive Weather Map New forecast layout! Learn more

10-Day Weather Forecast

Advertisements
Track Severe Weather on mobile